Time;durP1;ratioP1;P1;durP2;ratioP2;P2;SDS_P1;SDS_P2;PMS_P1;PMS_P2;Temp;Humidity;BMP_temperature;BMP_pressure;BME280_temperature;BME280_humidity;BME280_pressure;Samples;Min_cycle;Max_cycle;Signal;HPM_P1;HPM_P2
2023/04/02 00:01:00;;;;;;;15.18;9.00;;;5.10;99.90;;;;;;7368512;19;20082;-64
2023/04/02 00:03:52;;;;;;;11.73;8.55;;;5.10;99.90;;;;;;7370501;19;20026;-64
2023/04/02 00:06:29;;;;;;;9.48;8.00;;;5.10;99.90;;;;;;7364991;19;20022;-65
2023/04/02 00:08:58;;;;;;;11.75;8.32;;;5.10;99.90;;;;;;7371604;19;20284;-65
2023/04/02 00:11:36;;;;;;;11.35;8.00;;;5.00;99.90;;;;;;7370111;19;20039;-65
2023/04/02 00:14:05;;;;;;;10.35;7.32;;;5.00;99.90;;;;;;7370512;19;20022;-65
2023/04/02 00:16:32;;;;;;;11.88;7.72;;;5.00;99.90;;;;;;7369168;19;20018;-64
2023/04/02 00:19:11;;;;;;;13.65;8.48;;;5.00;99.90;;;;;;7372529;19;20030;-64
2023/04/02 00:21:41;;;;;;;10.73;7.72;;;5.00;99.90;;;;;;7371061;19;20010;-64
2023/04/02 00:24:18;;;;;;;13.95;8.63;;;5.00;99.90;;;;;;7365596;19;20106;-69
2023/04/02 00:26:46;;;;;;;11.68;7.63;;;5.00;99.90;;;;;;7366178;19;20014;-65
2023/04/02 00:29:14;;;;;;;11.45;7.75;;;4.90;99.90;;;;;;7369443;19;20051;-64
2023/04/02 00:31:52;;;;;;;11.52;7.68;;;4.90;99.90;;;;;;7368363;19;20015;-64
2023/04/02 00:34:30;;;;;;;11.50;7.57;;;4.90;99.90;;;;;;7375162;19;20031;-64
2023/04/02 00:36:57;;;;;;;10.32;8.13;;;4.90;99.90;;;;;;7375473;19;20378;-64
2023/04/02 00:39:27;;;;;;;10.50;7.57;;;4.90;99.90;;;;;;7376767;19;20026;-68
2023/04/02 00:42:05;;;;;;;12.82;7.38;;;4.90;99.90;;;;;;7375252;19;20022;-65
2023/04/02 00:44:44;;;;;;;12.63;8.00;;;4.90;99.90;;;;;;7372126;19;20018;-65
2023/04/02 00:47:21;;;;;;;11.95;7.45;;;4.90;99.90;;;;;;7377401;19;20393;-65
2023/04/02 00:49:53;;;;;;;12.43;7.28;;;4.80;99.90;;;;;;7376018;19;20035;-65
2023/04/02 00:52:25;;;;;;;11.43;6.75;;;4.80;99.90;;;;;;7376656;19;20011;-68
2023/04/02 00:54:59;;;;;;;10.23;7.22;;;4.70;99.90;;;;;;7372866;19;20065;-65
2023/04/02 00:57:26;;;;;;;9.00;6.80;;;4.70;99.90;;;;;;7375240;19;20915;-69
2023/04/02 01:00:06;;;;;;;10.63;6.95;;;4.70;99.90;;;;;;7374610;19;20683;-64
2023/04/02 01:02:37;;;;;;;9.48;6.80;;;4.70;99.90;;;;;;7376738;19;20486;-68
2023/04/02 01:05:16;;;;;;;10.30;6.75;;;4.60;99.90;;;;;;7371977;19;20126;-69
2023/04/02 01:08:06;;;;;;;9.18;7.25;;;4.60;99.90;;;;;;7375162;19;20021;-65
2023/04/02 01:10:41;;;;;;;10.93;6.75;;;4.60;99.90;;;;;;7370748;19;20428;-69
2023/04/02 01:13:16;;;;;;;10.90;6.25;;;4.50;99.90;;;;;;7372949;19;20018;-64
2023/04/02 01:16:14;;;;;;;13.57;7.30;;;4.50;99.90;;;;;;7370918;19;20023;-64
2023/04/02 01:18:57;;;;;;;8.95;6.50;;;4.40;99.90;;;;;;7371983;19;20018;-64
2023/04/02 01:21:41;;;;;;;;;;;4.40;99.90;;;;;;7376768;19;20371;-64
2023/04/02 01:24:11;;;;;;;8.05;5.78;;;4.30;99.90;;;;;;7374814;19;20312;-67
2023/04/02 01:26:56;;;;;;;11.38;6.60;;;4.20;99.90;;;;;;7370804;19;20006;-68
2023/04/02 01:29:26;;;;;;;11.30;6.20;;;4.20;99.90;;;;;;7375427;19;20058;-65
2023/04/02 01:31:56;;;;;;;9.43;6.10;;;4.10;99.90;;;;;;7372118;19;21155;-69
2023/04/02 01:34:26;;;;;;;10.27;5.75;;;4.00;99.90;;;;;;7374747;19;20032;-68
2023/04/02 01:37:05;;;;;;;9.18;5.57;;;3.90;99.90;;;;;;7373856;19;20022;-69
2023/04/02 01:39:40;;;;;;;8.68;5.35;;;3.80;99.90;;;;;;7373016;19;20410;-69
2023/04/02 01:42:36;;;;;;;7.85;5.82;;;3.60;99.90;;;;;;7372711;19;20035;-69
2023/04/02 01:45:16;;;;;;;7.43;5.43;;;3.50;99.90;;;;;;7372948;19;20054;-69
2023/04/02 01:48:13;;;;;;;9.63;5.32;;;3.50;99.90;;;;;;7371964;19;20421;-69
2023/04/02 01:51:06;;;;;;;8.45;5.15;;;3.40;99.90;;;;;;7372041;19;20018;-69
2023/04/02 01:53:53;;;;;;;9.25;5.70;;;3.30;99.90;;;;;;7372405;19;20018;-68
2023/04/02 01:56:41;;;;;;;10.57;5.63;;;3.20;99.90;;;;;;7370504;19;20745;-69
2023/04/02 01:59:27;;;;;;;10.07;5.88;;;3.20;99.90;;;;;;7362493;19;20014;-65
2023/04/02 02:02:21;;;;;;;10.00;5.85;;;3.10;99.90;;;;;;7372616;19;20627;-68
2023/04/02 02:05:20;;;;;;;8.02;5.07;;;3.00;99.90;;;;;;7369493;19;20022;-68
2023/04/02 02:08:43;;;;;;;8.63;5.15;;;3.00;99.90;;;;;;7370340;19;20018;-64
2023/04/02 02:11:15;;;;;;;11.80;5.93;;;2.90;99.90;;;;;;7372208;19;20753;-68
2023/04/02 02:14:10;;;;;;;9.65;5.70;;;2.90;99.90;;;;;;7370167;19;20805;-68
2023/04/02 02:16:40;;;;;;;9.73;5.53;;;2.80;99.90;;;;;;7373083;19;20472;-68
2023/04/02 02:19:21;;;;;;;7.40;4.60;;;2.80;99.90;;;;;;7372666;19;20482;-67
2023/04/02 02:22:18;;;;;;;12.95;5.63;;;2.70;99.90;;;;;;7369929;19;20490;-69
2023/04/02 02:24:45;;;;;;;7.68;5.00;;;2.70;99.90;;;;;;7370114;19;20015;-68
2023/04/02 02:27:21;;;;;;;7.88;4.88;;;2.60;99.90;;;;;;7371613;19;20025;-68
2023/04/02 02:30:01;;;;;;;8.68;4.80;;;2.50;99.90;;;;;;7371241;19;20759;-68
2023/04/02 02:32:30;;;;;;;6.03;4.47;;;2.60;99.90;;;;;;7375477;19;20018;-68
2023/04/02 02:35:07;;;;;;;7.70;4.60;;;2.50;99.90;;;;;;7371526;19;20017;-69
2023/04/02 02:37:39;;;;;;;9.73;5.10;;;2.40;99.90;;;;;;7371628;19;20053;-69
2023/04/02 02:40:22;;;;;;;9.80;5.03;;;2.40;99.90;;;;;;7373247;19;20601;-65
2023/04/02 02:42:56;;;;;;;8.40;5.22;;;2.40;99.90;;;;;;7371244;19;20021;-65
2023/04/02 02:45:27;;;;;;;8.45;5.38;;;2.30;99.90;;;;;;7372964;19;20125;-69
2023/04/02 02:47:59;;;;;;;9.43;4.87;;;2.30;99.90;;;;;;7372870;19;20134;-69
2023/04/02 02:50:31;;;;;;;8.23;4.30;;;2.30;99.90;;;;;;7370975;19;20035;-69
2023/04/02 02:53:03;;;;;;;10.93;5.50;;;2.20;99.90;;;;;;7371189;19;20466;-64
2023/04/02 02:55:36;;;;;;;10.02;5.15;;;2.20;99.90;;;;;;7373213;19;20014;-64
2023/04/02 02:58:30;;;;;;;8.45;5.05;;;2.10;99.90;;;;;;7374758;19;20405;-64
2023/04/02 03:01:19;;;;;;;8.23;4.18;;;2.10;99.90;;;;;;7372847;19;20015;-65
2023/04/02 03:03:51;;;;;;;9.40;4.97;;;2.10;99.90;;;;;;7372030;19;20380;-65
2023/04/02 03:06:19;;;;;;;8.25;4.47;;;2.10;99.90;;;;;;7370206;19;20827;-65
2023/04/02 03:09:20;;;;;;;6.28;4.53;;;2.00;99.90;;;;;;7373203;19;20022;-65
2023/04/02 03:12:11;;;;;;;8.82;4.78;;;2.00;99.90;;;;;;7367793;19;20891;-65
2023/04/02 03:14:45;;;;;;;10.38;5.32;;;2.00;99.90;;;;;;7368312;19;20014;-65
2023/04/02 03:17:26;;;;;;;9.48;4.63;;;1.90;99.90;;;;;;7368970;19;20022;-69
2023/04/02 03:20:05;;;;;;;8.68;4.70;;;1.90;99.90;;;;;;7366096;19;20013;-69
2023/04/02 03:22:40;;;;;;;9.90;4.60;;;1.90;99.90;;;;;;7370996;19;20019;-69
2023/04/02 03:25:27;;;;;;;10.15;4.55;;;2.00;99.90;;;;;;7369871;19;20022;-69
2023/04/02 03:28:10;;;;;;;7.00;4.32;;;2.00;99.90;;;;;;7369203;19;20608;-69
2023/04/02 03:30:57;;;;;;;8.25;4.03;;;2.00;99.90;;;;;;7369996;19;20037;-69
2023/04/02 03:33:30;;;;;;;8.68;4.30;;;2.00;99.90;;;;;;7370649;19;20018;-69
2023/04/02 03:36:22;;;;;;;9.93;4.45;;;2.00;99.90;;;;;;7366700;19;20014;-69
2023/04/02 03:38:56;;;;;;;7.95;4.90;;;2.10;99.90;;;;;;7370420;19;20023;-69
2023/04/02 03:41:40;;;;;;;7.40;3.90;;;2.10;99.90;;;;;;7373261;19;20034;-68
2023/04/02 03:44:27;;;;;;;10.43;4.43;;;2.10;99.90;;;;;;7372720;19;20014;-68
2023/04/02 03:46:59;;;;;;;8.15;4.05;;;2.20;99.90;;;;;;7365873;19;20019;-68
2023/04/02 03:49:56;;;;;;;8.05;4.15;;;2.20;99.90;;;;;;7372504;19;20018;-68
2023/04/02 03:52:28;;;;;;;8.25;4.05;;;2.20;99.90;;;;;;7370964;19;20051;-68
2023/04/02 03:54:59;;;;;;;7.80;4.18;;;2.20;99.90;;;;;;7369809;19;20037;-64
2023/04/02 03:57:39;;;;;;;7.80;3.75;;;2.20;99.90;;;;;;7371560;19;20022;-64
2023/04/02 04:00:13;;;;;;;6.85;3.38;;;2.20;99.90;;;;;;7372409;19;20526;-64
2023/04/02 04:02:53;;;;;;;7.30;3.80;;;2.20;99.90;;;;;;7372162;19;20132;-64
2023/04/02 04:05:29;;;;;;;8.23;4.10;;;2.20;99.90;;;;;;7370000;19;20018;-64
2023/04/02 04:08:07;;;;;;;6.07;3.72;;;2.20;99.90;;;;;;7369125;19;20011;-65
2023/04/02 04:10:35;;;;;;;10.77;3.72;;;2.20;99.90;;;;;;7369474;19;20038;-67
2023/04/02 04:13:08;;;;;;;10.02;3.72;;;2.20;99.90;;;;;;7371597;19;20014;-68
2023/04/02 04:15:58;;;;;;;5.72;3.33;;;2.20;99.90;;;;;;7369191;19;20019;-69
2023/04/02 04:18:33;;;;;;;10.45;3.80;;;2.10;99.90;;;;;;7368997;19;20772;-64
2023/04/02 04:21:14;;;;;;;6.93;3.75;;;2.10;99.90;;;;;;7370251;19;20508;-64
2023/04/02 04:23:49;;;;;;;7.93;3.50;;;2.10;99.90;;;;;;7369629;19;20037;-67
2023/04/02 04:26:33;;;;;;;8.77;4.20;;;2.10;99.90;;;;;;7364086;19;20082;-69
2023/04/02 04:29:30;;;;;;;9.75;3.95;;;2.10;99.90;;;;;;7363800;19;20019;-69
2023/04/02 04:32:15;;;;;;;7.18;3.67;;;2.00;99.90;;;;;;7367069;19;20858;-69
2023/04/02 04:34:52;;;;;;;8.95;3.03;;;2.00;99.90;;;;;;7366740;19;20022;-65
2023/04/02 04:37:24;;;;;;;8.73;4.15;;;2.00;99.90;;;;;;7368104;19;20601;-65
2023/04/02 04:40:06;;;;;;;6.55;2.67;;;2.00;99.90;;;;;;7366871;19;20636;-69
2023/04/02 04:42:36;;;;;;;9.30;3.50;;;2.00;99.90;;;;;;7368718;19;20025;-69
2023/04/02 04:45:35;;;;;;;9.50;3.65;;;2.00;99.90;;;;;;7368200;19;20049;-69
2023/04/02 04:48:13;;;;;;;9.88;3.35;;;2.00;99.90;;;;;;7364794;19;20026;-68
2023/04/02 04:50:58;;;;;;;7.95;3.15;;;1.90;99.90;;;;;;7358205;19;20477;-69
2023/04/02 04:53:28;;;;;;;9.73;3.25;;;1.90;99.90;;;;;;7365966;19;20082;-64
2023/04/02 04:56:03;;;;;;;8.35;2.58;;;1.90;99.90;;;;;;7368551;19;20438;-64
2023/04/02 04:59:03;;;;;;;8.70;2.80;;;1.90;99.90;;;;;;7365632;19;20019;-68
2023/04/02 05:01:49;;;;;;;7.03;2.50;;;1.80;99.90;;;;;;7366052;19;20021;-64
2023/04/02 05:04:26;;;;;;;8.30;2.75;;;1.90;99.90;;;;;;7366384;19;20022;-64
2023/04/02 05:06:56;;;;;;;7.47;2.70;;;1.90;99.90;;;;;;7364894;19;20025;-64
2023/04/02 05:09:41;;;;;;;8.80;2.60;;;1.80;99.90;;;;;;7362089;19;20038;-65
2023/04/02 05:12:29;;;;;;;11.07;2.75;;;1.80;99.90;;;;;;7364463;19;20047;-64
2023/04/02 05:15:05;;;;;;;6.88;2.45;;;1.90;99.90;;;;;;7365012;19;20014;-65
2023/04/02 05:17:34;;;;;;;9.30;2.67;;;1.80;99.90;;;;;;7364929;19;20041;-65
2023/04/02 05:20:28;;;;;;;11.10;2.80;;;1.80;99.90;;;;;;7366473;19;20678;-65
2023/04/02 05:23:03;;;;;;;5.05;2.50;;;1.90;99.90;;;;;;7370669;19;20015;-65
2023/04/02 05:25:30;;;;;;;8.15;2.72;;;1.90;99.90;;;;;;7373614;19;20033;-65
2023/04/02 05:28:14;;;;;;;8.57;2.78;;;1.90;99.90;;;;;;7373010;19;20022;-69
2023/04/02 05:30:56;;;;;;;6.80;2.42;;;1.80;99.90;;;;;;7369585;19;20102;-68
2023/04/02 05:33:29;;;;;;;7.40;2.63;;;1.80;99.90;;;;;;7376071;19;20021;-69
2023/04/02 05:36:06;;;;;;;7.50;2.67;;;1.80;99.90;;;;;;7373965;19;20022;-68
2023/04/02 05:38:45;;;;;;;7.10;3.15;;;1.80;99.90;;;;;;7376456;19;20082;-69
2023/04/02 05:41:57;;;;;;;8.57;2.80;;;1.90;99.90;;;;;;7375807;19;20030;-65
2023/04/02 05:44:40;;;;;;;7.50;3.30;;;1.90;99.90;;;;;;7372445;19;20019;-65
2023/04/02 05:47:18;;;;;;;15.88;6.60;;;1.90;99.90;;;;;;7370243;19;20010;-68
2023/04/02 05:49:48;;;;;;;7.43;1.90;;;1.90;99.90;;;;;;7370075;19;20019;-68
2023/04/02 05:52:22;;;;;;;5.95;2.30;;;1.90;99.90;;;;;;7371063;19;20027;-68
2023/04/02 05:55:09;;;;;;;6.35;3.05;;;1.80;99.90;;;;;;7373244;19;20015;-65
2023/04/02 05:58:01;;;;;;;13.30;6.25;;;1.90;99.90;;;;;;7370822;19;20379;-65
2023/04/02 06:00:40;;;;;;;;;;;1.80;99.90;;;;;;7370284;19;20655;-65
2023/04/02 06:03:44;;;;;;;10.88;4.45;;;1.80;99.90;;;;;;7370369;19;19950;-65
2023/04/02 06:06:42;;;;;;;6.15;2.38;;;1.90;99.90;;;;;;7368904;19;20099;-64
2023/04/02 06:09:18;;;;;;;6.15;2.42;;;2.00;99.90;;;;;;7366589;19;20023;-68
2023/04/02 06:11:59;;;;;;;8.68;3.38;;;2.00;99.90;;;;;;7367179;19;20154;-69
2023/04/02 06:14:25;;;;;;;11.63;4.80;;;2.00;99.90;;;;;;7368586;19;20022;-69
2023/04/02 06:16:53;;;;;;;7.82;2.40;;;2.10;99.90;;;;;;7368951;19;20143;-65
2023/04/02 06:19:29;;;;;;;16.23;8.90;;;2.30;99.90;;;;;;7369464;19;20022;-68
2023/04/02 06:22:07;;;;;;;12.32;4.90;;;2.30;99.90;;;;;;7369749;19;20035;-68
2023/04/02 06:24:38;;;;;;;4.50;1.73;;;2.30;99.90;;;;;;7370535;19;20026;-63
2023/04/02 06:27:09;;;;;;;16.23;6.88;;;2.40;99.90;;;;;;7369462;19;20039;-68
2023/04/02 06:29:40;;;;;;;6.18;1.85;;;2.40;99.90;;;;;;7369879;19;20018;-65
2023/04/02 06:32:11;;;;;;;7.38;2.28;;;2.40;99.90;;;;;;7367643;19;20713;-69
2023/04/02 06:34:44;;;;;;;7.18;2.17;;;2.60;99.90;;;;;;7368199;19;20066;-65
2023/04/02 06:37:16;;;;;;;5.43;1.30;;;2.60;99.90;;;;;;7366182;19;20094;-65
2023/04/02 06:39:43;;;;;;;11.32;5.88;;;2.70;99.90;;;;;;7367392;19;20624;-65
2023/04/02 06:42:18;;;;;;;7.05;2.92;;;2.80;99.90;;;;;;7364487;19;20691;-65
2023/04/02 06:45:40;;;;;;;15.57;7.78;;;3.00;99.90;;;;;;7364929;19;20101;-67
2023/04/02 06:48:20;;;;;;;11.18;4.75;;;3.20;99.90;;;;;;7368083;19;20502;-66
2023/04/02 06:51:11;;;;;;;7.50;2.03;;;3.30;99.90;;;;;;7364034;19;20014;-65
2023/04/02 06:53:46;;;;;;;9.98;3.28;;;3.60;99.90;;;;;;7367160;19;20023;-65
2023/04/02 06:56:30;;;;;;;5.57;1.70;;;3.70;99.90;;;;;;7365990;19;20015;-66
2023/04/02 06:58:58;;;;;;;13.65;4.93;;;3.80;99.90;;;;;;7366460;19;20053;-66
2023/04/02 07:01:29;;;;;;;18.40;10.93;;;3.80;99.90;;;;;;7363669;19;20018;-65
2023/04/02 07:03:57;;;;;;;10.23;5.47;;;3.80;99.90;;;;;;7365193;19;20761;-66
2023/04/02 07:06:31;;;;;;;7.05;3.83;;;3.80;99.90;;;;;;7364666;19;20834;-66
2023/04/02 07:09:00;;;;;;;12.20;6.68;;;3.80;99.90;;;;;;7365824;19;20033;-66
2023/04/02 07:11:26;;;;;;;15.68;6.95;;;3.90;99.90;;;;;;7365199;19;20034;-65
2023/04/02 07:13:57;;;;;;;9.25;3.67;;;3.80;99.90;;;;;;7363378;19;20879;-64
2023/04/02 07:16:26;;;;;;;16.90;7.30;;;4.10;99.90;;;;;;7370625;19;20014;-64
2023/04/02 07:18:54;;;;;;;12.15;6.72;;;4.30;99.90;;;;;;7367612;19;20022;-65
2023/04/02 07:21:21;;;;;;;9.80;4.55;;;4.50;99.90;;;;;;7368377;19;20018;-64
2023/04/02 07:23:48;;;;;;;10.07;4.57;;;4.80;99.90;;;;;;7365678;19;20362;-65
2023/04/02 07:26:18;;;;;;;8.35;2.25;;;5.10;99.90;;;;;;7367515;19;20039;-65
2023/04/02 07:28:44;;;;;;;13.85;9.05;;;5.20;99.90;;;;;;7366645;19;20509;-65
2023/04/02 07:31:28;;;;;;;12.20;4.28;;;5.60;99.90;;;;;;7367866;19;20093;-66
2023/04/02 07:33:58;;;;;;;7.38;2.70;;;5.70;99.90;;;;;;7369674;19;20061;-65
2023/04/02 07:36:29;;;;;;;14.57;6.63;;;6.00;99.90;;;;;;7366432;19;20504;-64
2023/04/02 07:38:56;;;;;;;;;;;6.10;99.90;;;;;;7364815;19;20600;-66
2023/04/02 07:41:23;;;;;;;11.20;6.88;;;6.10;99.90;;;;;;7367180;19;20437;-65
2023/04/02 07:43:50;;;;;;;13.73;7.70;;;6.30;99.90;;;;;;7366746;19;20022;-65
2023/04/02 07:46:17;;;;;;;11.90;7.05;;;6.60;99.90;;;;;;7368693;19;20022;-65
2023/04/02 07:48:45;;;;;;;7.13;1.90;;;6.90;99.90;;;;;;7370215;19;20022;-66
2023/04/02 07:51:20;;;;;;;7.57;2.50;;;6.70;99.90;;;;;;7367855;19;20356;-66
2023/04/02 07:53:54;;;;;;;10.77;6.05;;;6.50;99.90;;;;;;7370177;19;20748;-66
2023/04/02 07:56:23;;;;;;;11.23;4.18;;;6.50;99.90;;;;;;7371964;19;20022;-65
2023/04/02 07:58:49;;;;;;;10.77;5.00;;;6.50;99.90;;;;;;7371321;19;20046;-65
2023/04/02 08:01:24;;;;;;;10.30;4.57;;;6.70;99.90;;;;;;7369916;19;20284;-64
2023/04/02 08:03:52;;;;;;;7.57;3.50;;;7.10;99.90;;;;;;7370810;19;20039;-65
2023/04/02 08:06:19;;;;;;;6.88;1.80;;;7.30;99.90;;;;;;7369464;19;20465;-65
2023/04/02 08:08:46;;;;;;;7.88;4.00;;;7.90;99.90;;;;;;7369744;19;20098;-66
2023/04/02 08:11:12;;;;;;;12.15;5.07;;;8.60;99.90;;;;;;7371821;19;20023;-66
2023/04/02 08:13:39;;;;;;;9.43;3.50;;;8.90;99.90;;;;;;7368554;19;20015;-65
2023/04/02 08:16:07;;;;;;;15.95;9.75;;;9.00;99.90;;;;;;7373648;19;20047;-65
2023/04/02 08:18:34;;;;;;;11.55;5.35;;;8.70;99.90;;;;;;7368841;19;20719;-65
2023/04/02 08:21:01;;;;;;;7.30;3.10;;;8.40;99.90;;;;;;7371319;19;20492;-66
2023/04/02 08:23:27;;;;;;;5.88;2.50;;;8.30;99.90;;;;;;7370901;19;20022;-66
2023/04/02 08:25:54;;;;;;;13.55;8.27;;;8.30;99.90;;;;;;7370913;19;20014;-66
2023/04/02 08:28:21;;;;;;;7.68;4.20;;;8.60;99.90;;;;;;7370708;19;20110;-65
2023/04/02 08:30:48;;;;;;;4.47;1.73;;;8.70;99.90;;;;;;7370510;19;20018;-66
2023/04/02 08:33:16;;;;;;;8.40;2.90;;;8.90;99.90;;;;;;7368384;19;20026;-65
2023/04/02 08:35:47;;;;;;;5.55;2.08;;;8.70;99.90;;;;;;7371403;19;20040;-66
2023/04/02 08:38:19;;;;;;;4.88;1.73;;;8.70;99.90;;;;;;7370358;19;20023;-66
2023/04/02 08:40:49;;;;;;;10.07;5.43;;;8.80;99.90;;;;;;7370830;19;20018;-65
2023/04/02 08:43:48;;;;;;;8.75;1.98;;;8.90;99.90;;;;;;7370588;19;20061;-66
2023/04/02 08:46:46;;;;;;;4.57;1.45;;;9.10;99.90;;;;;;7367355;19;20034;-65
2023/04/02 08:49:38;;;;;;;4.43;1.30;;;9.60;99.90;;;;;;7371726;19;20577;-66
2023/04/02 08:52:04;;;;;;;;;;;10.10;99.90;;;;;;7373071;19;20014;-67
2023/04/02 08:54:36;;;;;;;12.65;6.65;;;10.70;90.90;;;;;;7373067;19;20252;-66
2023/04/02 08:57:10;;;;;;;5.03;2.80;;;11.10;94.30;;;;;;7378871;19;20378;-66
2023/04/02 08:59:42;;;;;;;14.98;10.77;;;11.20;97.20;;;;;;7378141;19;20517;-67
2023/04/02 09:02:11;;;;;;;;;;;11.70;86.70;;;;;;7376439;19;20019;-66
2023/04/02 09:04:40;;;;;;;9.98;5.07;;;11.20;72.60;;;;;;7377542;19;20701;-66
2023/04/02 09:07:13;;;;;;;14.80;5.57;;;11.00;81.10;;;;;;7373982;19;20146;-66
2023/04/02 09:09:40;;;;;;;7.60;3.88;;;11.20;78.40;;;;;;7377532;19;20014;-66
2023/04/02 09:12:16;;;;;;;6.68;2.35;;;11.60;81.40;;;;;;7380458;19;20241;-66
2023/04/02 09:15:02;;;;;;;5.70;1.40;;;11.90;71.10;;;;;;7373551;19;20010;-66
2023/04/02 09:17:32;;;;;;;5.15;1.60;;;11.50;66.90;;;;;;7380173;19;20111;-68
2023/04/02 09:20:26;;;;;;;6.03;1.38;;;11.60;71.90;;;;;;7377378;19;20018;-66
2023/04/02 09:22:54;;;;;;;6.22;2.67;;;11.60;70.00;;;;;;7376494;19;20022;-66
2023/04/02 09:25:27;;;;;;;6.28;2.15;;;11.70;87.50;;;;;;7378478;19;20026;-66
2023/04/02 09:27:55;;;;;;;7.20;3.53;;;10.80;73.60;;;;;;7379870;19;20031;-66
2023/04/02 09:30:28;;;;;;;8.05;4.72;;;11.30;73.70;;;;;;7378600;19;20026;-71
2023/04/02 09:33:06;;;;;;;4.63;2.25;;;11.60;72.70;;;;;;7377737;19;20122;-70
2023/04/02 09:35:36;;;;;;;6.65;3.17;;;11.60;76.70;;;;;;7378726;19;20995;-69
2023/04/02 09:38:09;;;;;;;7.53;2.97;;;12.00;67.00;;;;;;7377144;19;20035;-70
2023/04/02 09:41:05;;;;;;;5.50;2.45;;;12.30;69.80;;;;;;7376186;19;20481;-69
2023/04/02 09:43:38;;;;;;;6.57;3.05;;;12.50;65.70;;;;;;7378702;19;20059;-66
2023/04/02 09:46:24;;;;;;;7.13;4.47;;;12.50;67.80;;;;;;7377891;19;20119;-66
2023/04/02 09:48:53;;;;;;;6.57;1.98;;;12.80;64.40;;;;;;7377272;19;20391;-66
2023/04/02 09:51:24;;;;;;;4.65;2.15;;;12.80;66.30;;;;;;7379743;19;20381;-67
2023/04/02 09:54:06;;;;;;;8.68;3.90;;;13.40;66.40;;;;;;7376054;19;20661;-67
2023/04/02 09:56:34;;;;;;;4.88;1.75;;;13.40;64.00;;;;;;7370381;19;20018;-67
2023/04/02 09:59:20;;;;;;;10.50;5.35;;;13.90;63.00;;;;;;7373961;19;20851;-68
2023/04/02 10:01:52;;;;;;;7.35;3.08;;;13.80;59.60;;;;;;7377239;19;20021;-66
2023/04/02 10:04:43;;;;;;;5.80;2.33;;;13.60;60.30;;;;;;7377888;19;20010;-68
2023/04/02 10:07:50;;;;;;;8.55;4.68;;;13.90;58.60;;;;;;7374991;19;20026;-67
2023/04/02 10:10:34;;;;;;;9.75;4.57;;;14.40;60.20;;;;;;7372135;19;20014;-68
2023/04/02 10:13:06;;;;;;;8.77;5.10;;;14.40;58.60;;;;;;7370440;19;20839;-69
2023/04/02 10:15:41;;;;;;;5.22;1.95;;;14.50;59.70;;;;;;7371465;19;20026;-70
2023/04/02 10:18:40;;;;;;;11.10;4.60;;;13.90;57.90;;;;;;7372604;19;20113;-70
2023/04/02 10:21:09;;;;;;;13.48;7.50;;;13.90;56.90;;;;;;7372258;19;20074;-67
2023/04/02 10:23:35;;;;;;;9.82;4.60;;;14.30;62.00;;;;;;7372289;19;20427;-67
2023/04/02 10:26:11;;;;;;;6.35;1.50;;;14.60;60.50;;;;;;7370490;19;20030;-67
2023/04/02 10:29:07;;;;;;;13.23;9.82;;;15.40;61.10;;;;;;7377944;19;20894;-70
2023/04/02 10:31:46;;;;;;;6.70;3.58;;;15.70;57.00;;;;;;7372347;19;20035;-70
2023/04/02 10:34:23;;;;;;;9.40;4.63;;;14.80;55.00;;;;;;7373933;19;20015;-68
2023/04/02 10:37:02;;;;;;;10.57;5.95;;;14.90;56.50;;;;;;7375111;19;20018;-66
2023/04/02 10:39:41;;;;;;;5.10;1.45;;;15.40;56.60;;;;;;7375234;19;20014;-66
2023/04/02 10:42:35;;;;;;;3.67;1.45;;;15.80;56.60;;;;;;7379086;19;20786;-66
2023/04/02 10:45:34;;;;;;;3.33;1.30;;;15.50;54.30;;;;;;7378054;19;20073;-66
2023/04/02 10:48:10;;;;;;;4.15;1.80;;;15.50;54.90;;;;;;7376035;19;20660;-67
2023/04/02 10:51:14;;;;;;;6.68;2.40;;;15.10;53.60;;;;;;7374576;19;20022;-74
2023/04/02 10:53:48;;;;;;;8.57;3.95;;;14.50;55.60;;;;;;7375333;19;20073;-67
2023/04/02 10:56:15;;;;;;;11.73;6.53;;;14.60;57.10;;;;;;7367439;19;20014;-74
2023/04/02 10:58:54;;;;;;;6.70;2.10;;;15.10;57.60;;;;;;7374809;19;20482;-67
2023/04/02 11:01:28;;;;;;;4.90;1.40;;;15.10;56.90;;;;;;7379983;19;20082;-67
2023/04/02 11:04:32;;;;;;;4.35;2.58;;;14.90;55.40;;;;;;7378932;19;20380;-67
2023/04/02 11:07:12;;;;;;;4.18;1.50;;;15.40;54.40;;;;;;7377239;19;20022;-67
2023/04/02 11:09:42;;;;;;;3.78;1.20;;;15.60;54.40;;;;;;7377688;19;20048;-67
2023/04/02 11:12:32;;;;;;;2.65;1.38;;;15.50;54.00;;;;;;7381138;19;20025;-67
2023/04/02 11:14:59;;;;;;;3.40;1.40;;;15.50;54.70;;;;;;7376448;19;20078;-67
2023/04/02 11:17:25;;;;;;;5.90;3.88;;;16.00;56.60;;;;;;7380062;19;20025;-67
2023/04/02 11:19:52;;;;;;;5.75;3.38;;;15.80;56.20;;;;;;7376518;19;20336;-74
2023/04/02 11:22:23;;;;;;;6.82;4.13;;;16.00;55.00;;;;;;7377157;19;20017;-74
2023/04/02 11:24:53;;;;;;;4.90;3.08;;;15.90;54.20;;;;;;7373809;19;20006;-74
2023/04/02 11:27:31;;;;;;;6.35;3.25;;;16.20;55.10;;;;;;7373404;19;20581;-74
2023/04/02 11:30:18;;;;;;;6.15;2.05;;;16.40;53.00;;;;;;7376067;19;20620;-74
2023/04/02 11:32:48;;;;;;;6.88;4.38;;;16.60;52.50;;;;;;7373216;19;20026;-66
2023/04/02 11:35:29;;;;;;;6.57;2.55;;;16.90;53.80;;;;;;7380544;19;20035;-66
2023/04/02 11:38:03;;;;;;;5.15;1.70;;;16.80;51.80;;;;;;7376092;19;20078;-66
2023/04/02 11:40:48;;;;;;;11.05;7.20;;;17.10;54.20;;;;;;7379557;19;20029;-65
2023/04/02 11:43:36;;;;;;;4.70;2.75;;;16.70;52.10;;;;;;7381498;19;20022;-73
2023/04/02 11:46:25;;;;;;;10.38;5.78;;;16.70;53.90;;;;;;7364516;19;20512;-73
2023/04/02 11:49:33;;;;;;;8.43;5.88;;;16.40;52.10;;;;;;7366463;19;20704;-73
2023/04/02 11:52:00;;;;;;;5.28;3.53;;;16.90;54.40;;;;;;7363767;19;20383;-73
2023/04/02 11:54:30;;;;;;;8.23;4.72;;;17.80;55.10;;;;;;7367261;19;20018;-66
2023/04/02 11:57:22;;;;;;;7.38;3.80;;;17.20;52.10;;;;;;7365584;19;20030;-73
2023/04/02 12:00:20;;;;;;;8.77;5.70;;;17.40;51.90;;;;;;7366588;19;20082;-73
2023/04/02 12:03:02;;;;;;;3.67;1.35;;;17.00;50.30;;;;;;7365125;19;20818;-74
2023/04/02 12:05:41;;;;;;;6.97;3.75;;;17.00;50.70;;;;;;7368048;19;20612;-67
2023/04/02 12:08:34;;;;;;;5.55;2.72;;;17.40;52.20;;;;;;7374543;19;20022;-66
2023/04/02 12:11:02;;;;;;;8.38;5.70;;;17.60;49.90;;;;;;7367464;19;20028;-72
2023/04/02 12:13:40;;;;;;;11.20;8.65;;;17.90;52.10;;;;;;7374646;19;20375;-67
2023/04/02 12:16:11;;;;;;;10.73;7.93;;;17.50;49.00;;;;;;7371698;19;20018;-65
2023/04/02 12:18:46;;;;;;;25.40;21.63;;;17.50;50.50;;;;;;7371416;19;20021;-65
2023/04/02 12:21:16;;;;;;;8.32;5.28;;;17.50;51.30;;;;;;7351814;19;20019;-73
2023/04/02 12:23:46;;;;;;;6.78;2.92;;;17.20;52.00;;;;;;7353014;19;20014;-72
2023/04/02 12:26:36;;;;;;;19.38;16.17;;;17.30;51.30;;;;;;7361757;19;20044;-70
2023/04/02 12:29:36;;;;;;;8.35;4.55;;;17.70;50.50;;;;;;7365290;19;20093;-72
2023/04/02 12:32:02;;;;;;;6.65;3.20;;;17.60;48.80;;;;;;7365574;19;20528;-73
2023/04/02 12:34:29;;;;;;;11.32;7.78;;;17.10;50.90;;;;;;7372701;19;20485;-66
2023/04/02 12:37:04;;;;;;;8.43;6.38;;;17.10;51.00;;;;;;7371625;19;20022;-73
2023/04/02 12:39:32;;;;;;;4.80;1.30;;;17.80;50.20;;;;;;7371603;19;20019;-73
2023/04/02 12:41:58;;;;;;;8.90;6.30;;;18.20;49.30;;;;;;7374921;19;20090;-73
2023/04/02 12:44:27;;;;;;;9.52;6.15;;;18.00;50.50;;;;;;7377212;19;20335;-73
2023/04/02 12:46:58;;;;;;;6.45;2.00;;;17.90;50.10;;;;;;7369722;19;20094;-74
2023/04/02 12:49:33;;;;;;;7.03;4.70;;;18.00;49.30;;;;;;7374675;19;20025;-72
2023/04/02 12:52:31;;;;;;;7.70;3.90;;;17.90;50.40;;;;;;7379891;19;20022;-73
2023/04/02 12:55:05;;;;;;;6.88;5.45;;;18.40;49.90;;;;;;7376744;19;20076;-72
2023/04/02 12:57:33;;;;;;;12.50;9.00;;;18.30;48.80;;;;;;7375962;19;20018;-73
2023/04/02 13:00:18;;;;;;;6.07;3.67;;;18.50;48.50;;;;;;7375897;19;20085;-73
2023/04/02 13:03:00;;;;;;;10.75;7.65;;;18.60;48.50;;;;;;7373062;19;20500;-73
2023/04/02 13:05:52;;;;;;;6.88;3.10;;;18.70;47.90;;;;;;7378074;19;20367;-73
2023/04/02 13:08:26;;;;;;;7.53;4.97;;;18.10;47.70;;;;;;7376220;19;20057;-72
2023/04/02 13:10:56;;;;;;;11.23;5.88;;;18.10;49.80;;;;;;7371968;19;20021;-72
2023/04/02 13:13:36;;;;;;;4.85;1.75;;;18.10;49.20;;;;;;7366372;19;20050;-73
2023/04/02 13:16:27;;;;;;;5.05;2.60;;;18.50;46.80;;;;;;7369902;19;20081;-73
2023/04/02 13:19:08;;;;;;;;;;;19.10;46.50;;;;;;7371439;19;20623;-73
2023/04/02 13:21:35;;;;;;;4.47;2.40;;;18.90;46.50;;;;;;7371846;19;19922;-73
2023/04/02 13:24:01;;;;;;;5.38;2.88;;;19.60;48.90;;;;;;7367609;19;20018;-73
2023/04/02 13:26:28;;;;;;;7.10;3.58;;;18.90;47.00;;;;;;7368162;19;20011;-72
2023/04/02 13:29:00;;;;;;;8.18;5.25;;;18.10;47.70;;;;;;7372555;19;20018;-72
2023/04/02 13:31:28;;;;;;;6.43;2.15;;;17.10;48.60;;;;;;7369870;19;20014;-72
2023/04/02 13:33:54;;;;;;;6.55;4.20;;;17.60;48.60;;;;;;7367805;19;20060;-73
2023/04/02 13:36:23;;;;;;;7.72;4.90;;;17.90;47.70;;;;;;7370526;19;20042;-72
2023/04/02 13:38:49;;;;;;;6.40;3.08;;;18.80;48.50;;;;;;7368537;19;20029;-72
2023/04/02 13:41:42;;;;;;;5.65;1.58;;;18.90;48.30;;;;;;7364731;19;20018;-72
2023/04/02 13:44:21;;;;;;;10.43;4.40;;;18.50;47.40;;;;;;7369721;19;20047;-72